Eviapetrol II — SY6858 — position and weather

sailwx.info

Track history (hours):
 
Tides and Currents Weather Stations Pressure Air Temp Water Temp Dewpoint Dewpoint Depression Visibility Wind Speed Wind Dir Waves Ship Positions

Eviapetrol II

Last reported at 2016-Jun-29 15:23 UTC. Time now 2016-Jun-29 16:30 UTC.
Position N 38°02' E 023°36'.

Length 78 m; draft 4.3 m.

Type: Tanker. MMSI: 240493000.

Date/timePositionNaut miles runAvg speedWind from/ knotsBaromVisibWave heightAir tempDewpointWater temp
2016-Jun-29 15:23N 38°02' E 023°36'0 0.0
2016-Jun-29 14:26N 38°02' E 023°36'0 0.0
2016-Jun-29 13:23N 38°02' E 023°36'0 0.0
2016-Jun-29 11:23N 38°02' E 023°36'0 0.0
2016-Jun-29 10:33N 38°02' E 023°36'2 2.3
2016-Jun-29 09:34N 38°02' E 023°33'2 1.8
2016-Jun-29 08:32N 38°02' E 023°30'0 0.0
2016-Jun-29 07:29N 38°02' E 023°31'0 0.0
2016-Jun-29 06:33N 38°02' E 023°30'0 0.0
2016-Jun-29 05:31N 38°02' E 023°30'0 0.0
2016-Jun-29 04:30N 38°02' E 023°30'0 0.0
2016-Jun-29 03:32N 38°02' E 023°30'0 0.0
2016-Jun-29 02:33N 38°02' E 023°30'0 0.0
2016-Jun-29 01:32N 38°02' E 023°30'0 0.0
2016-Jun-29 00:33N 38°02' E 023°30'1 0.7
2016-Jun-28 23:33N 38°02' E 023°31'0 0.4
2016-Jun-28 22:33N 38°02' E 023°32'0 0.1
2016-Jun-28 21:31N 38°02' E 023°32'0 0.0
2016-Jun-28 20:33N 38°02' E 023°32'0 0.0
2016-Jun-28 19:33N 38°02' E 023°32'4 4.4
2016-Jun-28 18:33N 37°60' E 023°27'9 9.0
2016-Jun-28 17:33N 37°56' E 023°16'1110.5
2016-Jun-28 16:31N 37°54' E 023°03'27 9.2
2016-Jun-28 13:32N 38°09' E 022°33'12 0.3
2016-Jun-26 17:31N 38°14' E 022°20'1010.6
2016-Jun-26 16:33N 38°10' E 022°32'28 9.4
2016-Jun-26 13:32N 37°55' E 023°02'1010.6
2016-Jun-26 12:34N 37°56' E 023°15'8 8.5
2016-Jun-26 11:33N 37°59' E 023°25'9 8.5
2016-Jun-26 10:31N 38°02' E 023°36'0 0.0
2016-Jun-26 09:20N 38°02' E 023°36'0 0.0
2016-Jun-26 08:28N 38°02' E 023°36'0 0.0
2016-Jun-26 07:25N 38°02' E 023°36'0 0.0
2016-Jun-26 06:33N 38°02' E 023°36'0 0.0
2016-Jun-26 05:28N 38°02' E 023°36'0 0.0
2016-Jun-26 04:33N 38°02' E 023°36'0 0.0
2016-Jun-26 03:32N 38°02' E 023°36'0 0.0
2016-Jun-26 02:31N 38°02' E 023°36'0 0.1
2016-Jun-26 01:30N 38°02' E 023°36'4 3.9
2016-Jun-26 00:29N 38°02' E 023°31'0 0.0
2016-Jun-25 23:32N 38°02' E 023°31'0 0.0
2016-Jun-25 22:29N 38°02' E 023°31'0 0.0
2016-Jun-25 21:32N 38°02' E 023°31'0 0.0
2016-Jun-25 20:32N 38°02' E 023°31'0 0.0
2016-Jun-25 19:32N 38°02' E 023°31'0 0.0
2016-Jun-25 18:32N 38°02' E 023°31'0 0.0
2016-Jun-25 17:32N 38°02' E 023°31'0 0.0
2016-Jun-25 16:29N 38°02' E 023°31'0 0.0
2016-Jun-25 15:32N 38°02' E 023°31'1 1.2
2016-Jun-25 14:33N 38°02' E 023°32'0 0.0
2016-Jun-25 13:34N 38°02' E 023°32'0 0.0
2016-Jun-25 12:33N 38°02' E 023°32'0 0.0
2016-Jun-25 11:33N 38°02' E 023°32'0 0.0
2016-Jun-25 10:34N 38°02' E 023°32'1 0.5
2016-Jun-25 09:34N 38°02' E 023°32'7 7.3
2016-Jun-25 08:33N 37°55' E 023°36'8 8.4
2016-Jun-25 07:33N 37°48' E 023°41'1110.7
2016-Jun-25 06:33N 37°38' E 023°47'1110.8
2016-Jun-25 05:33N 37°28' E 023°51'1110.3
2016-Jun-25 04:31N 37°18' E 023°56'  
2016-Jun-22 08:09N 37°26' E 024°01'910.0
2016-Jun-22 07:15N 37°33' E 023°53'710.7
2016-Jun-22 06:34N 37°38' E 023°46'1110.8
2016-Jun-22 05:33N 37°47' E 023°38'1110.6
2016-Jun-22 04:34N 37°57' E 023°35'5 5.4
2016-Jun-22 03:33N 38°02' E 023°32'0 0.0
2016-Jun-22 02:34N 38°02' E 023°32'0 0.0
2016-Jun-22 01:33N 38°02' E 023°32'0 0.0
2016-Jun-22 00:34N 38°02' E 023°32'0 0.0
2016-Jun-21 23:34N 38°02' E 023°32'1 0.9
2016-Jun-21 22:33N 38°02' E 023°33'2 0.1
2016-Jun-21 04:33N 38°01' E 023°35'18 4.6
2016-Jun-21 00:33N 37°49' E 023°18'8 8.2
2016-Jun-20 23:33N 37°41' E 023°16'1110.6
2016-Jun-20 22:33N 37°39' E 023°29'9 9.3
2016-Jun-20 21:33N 37°32' E 023°37'1010.4
2016-Jun-20 20:33N 37°22' E 023°39'10 9.8
2016-Jun-20 19:33N 37°12' E 023°42'1110.4
2016-Jun-20 18:28N 37°01' E 023°45'1011.0
2016-Jun-20 17:33N 36°51' E 023°47'1111.4
2016-Jun-20 16:33N 36°40' E 023°49'1111.2
2016-Jun-20 15:33N 36°29' E 023°51'1110.6
2016-Jun-20 14:33N 36°19' E 023°53'1110.5
2016-Jun-20 13:33N 36°08' E 023°55'1210.7
2016-Jun-20 12:25N 35°56' E 023°58'  
Track history (hours):
 
Tides and Currents Weather Stations Pressure Air Temp Water Temp Dewpoint Dewpoint Depression Visibility Wind Speed Wind Dir Waves Ship Positions

Eviapetrol II

Last reported at 2016-Jun-29 15:23 UTC. Time now 2016-Jun-29 16:30 UTC.
Position N 38°02' E 023°36'.

Length 78 m; draft 4.3 m.

Type: Tanker. MMSI: 240493000.

Date/timePositionNaut miles runAvg speedWind from/ knotsBaromVisibWave heightAir tempDewpointWater temp
2016-Jun-29 15:23N 38°02' E 023°36'0 0.0
2016-Jun-29 14:26N 38°02' E 023°36'0 0.0
2016-Jun-29 13:23N 38°02' E 023°36'0 0.0
2016-Jun-29 11:23N 38°02' E 023°36'0 0.0
2016-Jun-29 10:33N 38°02' E 023°36'2 2.3
2016-Jun-29 09:34N 38°02' E 023°33'2 1.8
2016-Jun-29 08:32N 38°02' E 023°30'0 0.0
2016-Jun-29 07:29N 38°02' E 023°31'0 0.0
2016-Jun-29 06:33N 38°02' E 023°30'0 0.0
2016-Jun-29 05:31N 38°02' E 023°30'0 0.0
2016-Jun-29 04:30N 38°02' E 023°30'0 0.0
2016-Jun-29 03:32N 38°02' E 023°30'0 0.0
2016-Jun-29 02:33N 38°02' E 023°30'0 0.0
2016-Jun-29 01:32N 38°02' E 023°30'0 0.0
2016-Jun-29 00:33N 38°02' E 023°30'1 0.7
2016-Jun-28 23:33N 38°02' E 023°31'0 0.4
2016-Jun-28 22:33N 38°02' E 023°32'0 0.1
2016-Jun-28 21:31N 38°02' E 023°32'0 0.0
2016-Jun-28 20:33N 38°02' E 023°32'0 0.0
2016-Jun-28 19:33N 38°02' E 023°32'4 4.4
2016-Jun-28 18:33N 37°60' E 023°27'9 9.0
2016-Jun-28 17:33N 37°56' E 023°16'1110.5
2016-Jun-28 16:31N 37°54' E 023°03'27 9.2
2016-Jun-28 13:32N 38°09' E 022°33'12 0.3
2016-Jun-26 17:31N 38°14' E 022°20'1010.6
2016-Jun-26 16:33N 38°10' E 022°32'28 9.4
2016-Jun-26 13:32N 37°55' E 023°02'1010.6
2016-Jun-26 12:34N 37°56' E 023°15'8 8.5
2016-Jun-26 11:33N 37°59' E 023°25'9 8.5
2016-Jun-26 10:31N 38°02' E 023°36'0 0.0
2016-Jun-26 09:20N 38°02' E 023°36'0 0.0
2016-Jun-26 08:28N 38°02' E 023°36'0 0.0
2016-Jun-26 07:25N 38°02' E 023°36'0 0.0
2016-Jun-26 06:33N 38°02' E 023°36'0 0.0
2016-Jun-26 05:28N 38°02' E 023°36'0 0.0
2016-Jun-26 04:33N 38°02' E 023°36'0 0.0
2016-Jun-26 03:32N 38°02' E 023°36'0 0.0
2016-Jun-26 02:31N 38°02' E 023°36'0 0.1
2016-Jun-26 01:30N 38°02' E 023°36'4 3.9
2016-Jun-26 00:29N 38°02' E 023°31'0 0.0
2016-Jun-25 23:32N 38°02' E 023°31'0 0.0
2016-Jun-25 22:29N 38°02' E 023°31'0 0.0
2016-Jun-25 21:32N 38°02' E 023°31'0 0.0
2016-Jun-25 20:32N 38°02' E 023°31'0 0.0
2016-Jun-25 19:32N 38°02' E 023°31'0 0.0
2016-Jun-25 18:32N 38°02' E 023°31'0 0.0
2016-Jun-25 17:32N 38°02' E 023°31'0 0.0
2016-Jun-25 16:29N 38°02' E 023°31'0 0.0
2016-Jun-25 15:32N 38°02' E 023°31'1 1.2
2016-Jun-25 14:33N 38°02' E 023°32'0 0.0
2016-Jun-25 13:34N 38°02' E 023°32'0 0.0
2016-Jun-25 12:33N 38°02' E 023°32'0 0.0
2016-Jun-25 11:33N 38°02' E 023°32'0 0.0
2016-Jun-25 10:34N 38°02' E 023°32'1 0.5
2016-Jun-25 09:34N 38°02' E 023°32'7 7.3
2016-Jun-25 08:33N 37°55' E 023°36'8 8.4
2016-Jun-25 07:33N 37°48' E 023°41'1110.7
2016-Jun-25 06:33N 37°38' E 023°47'1110.8
2016-Jun-25 05:33N 37°28' E 023°51'1110.3
2016-Jun-25 04:31N 37°18' E 023°56'  
2016-Jun-22 08:09N 37°26' E 024°01'910.0
2016-Jun-22 07:15N 37°33' E 023°53'710.7
2016-Jun-22 06:34N 37°38' E 023°46'1110.8
2016-Jun-22 05:33N 37°47' E 023°38'1110.6
2016-Jun-22 04:34N 37°57' E 023°35'5 5.4
2016-Jun-22 03:33N 38°02' E 023°32'0 0.0
2016-Jun-22 02:34N 38°02' E 023°32'0 0.0
2016-Jun-22 01:33N 38°02' E 023°32'0 0.0
2016-Jun-22 00:34N 38°02' E 023°32'0 0.0
2016-Jun-21 23:34N 38°02' E 023°32'1 0.9
2016-Jun-21 22:33N 38°02' E 023°33'2 0.1
2016-Jun-21 04:33N 38°01' E 023°35'18 4.6
2016-Jun-21 00:33N 37°49' E 023°18'8 8.2
2016-Jun-20 23:33N 37°41' E 023°16'1110.6
2016-Jun-20 22:33N 37°39' E 023°29'9 9.3
2016-Jun-20 21:33N 37°32' E 023°37'1010.4
2016-Jun-20 20:33N 37°22' E 023°39'10 9.8
2016-Jun-20 19:33N 37°12' E 023°42'1110.4
2016-Jun-20 18:28N 37°01' E 023°45'1011.0
2016-Jun-20 17:33N 36°51' E 023°47'1111.4
2016-Jun-20 16:33N 36°40' E 023°49'1111.2
2016-Jun-20 15:33N 36°29' E 023°51'1110.6
2016-Jun-20 14:33N 36°19' E 023°53'1110.5
2016-Jun-20 13:33N 36°08' E 023°55'1210.7
2016-Jun-20 12:25N 35°56' E 023°58'  

Dump ship's entire track history